Terminal Aerodrome Forecast
Issued by NWS

Home | Current Version | Previous Version | Text Only | Print | Product List | Glossary On
Versions: 1 2 3 4 5 6 7 8 9 10 11 12 13 14 15 16 17 18 19 20
494
FTUS44 KCRP 260910 AAA
TAFALI
TAF AMD
KALI 260910Z 2609/2706 19004KT P6SM FEW250
     FM261030 00000KT 2SM BR FEW008
      TEMPO 2611/2613 3/4SM BR BKN008
     FM261430 19007KT P6SM SCT030
     FM262100 14010KT P6SM FEW100
     FM270200 16007KT P6SM SKC=

USA.gov is the U.S. government's official web portal to all federal, state and local government web resources and services.